Time;durP1;ratioP1;P1;durP2;ratioP2;P2;SDS_P1;SDS_P2;PMS_P1;PMS_P2;Temp;Humidity;BMP_temperature;BMP_pressure;BME280_temperature;BME280_humidity;BME280_pressure;Samples;Min_cycle;Max_cycle;Signal;HPM_P1;HPM_P2
2023/10/10 00:02:19;;;;;;;10.18;4.13;;;16.50;99.90;;;;;;5071708;28;20040;-75
2023/10/10 00:04:47;;;;;;;8.43;4.20;;;16.10;99.90;;;;;;5050298;28;20541;-75
2023/10/10 00:07:14;;;;;;;9.00;4.35;;;16.40;99.90;;;;;;5072475;28;20040;-75
2023/10/10 00:09:44;;;;;;;8.40;3.80;;;16.10;99.90;;;;;;5066889;28;20470;-75
2023/10/10 00:12:13;;;;;;;10.82;4.53;;;16.10;99.90;;;;;;5094342;28;20044;-75
2023/10/10 00:14:39;;;;;;;6.97;4.53;;;16.10;99.90;;;;;;5071481;28;20054;-75
2023/10/10 00:17:07;;;;;;;9.73;4.00;;;16.50;99.90;;;;;;5071805;28;20408;-75
2023/10/10 00:19:43;;;;;;;8.23;4.43;;;16.60;99.90;;;;;;5070616;28;20111;-75
2023/10/10 00:22:09;;;;;;;13.00;4.75;;;16.30;99.90;;;;;;5055060;28;20374;-75
2023/10/10 00:24:35;;;;;;;12.55;4.60;;;16.10;99.90;;;;;;5071562;28;20032;-75
2023/10/10 00:27:13;;;;;;;7.03;4.20;;;16.40;99.90;;;;;;5054592;28;20044;-75
2023/10/10 00:29:43;;;;;;;11.95;4.80;;;16.10;99.90;;;;;;5064894;28;20044;-75
2023/10/10 00:32:16;;;;;;;8.50;4.78;;;16.50;99.90;;;;;;5072751;28;20473;-75
2023/10/10 00:34:47;;;;;;;8.50;4.82;;;16.10;99.90;;;;;;5071894;28;20464;-75
2023/10/10 00:37:13;;;;;;;11.38;4.90;;;16.20;99.90;;;;;;5079800;28;20443;-75
2023/10/10 00:39:39;;;;;;;7.18;4.68;;;16.40;99.90;;;;;;5082250;28;20036;-77
2023/10/10 00:42:07;;;;;;;10.23;4.80;;;16.20;99.90;;;;;;5051227;28;20568;-75
2023/10/10 00:44:37;;;;;;;8.38;5.20;;;16.20;99.90;;;;;;5071539;28;20102;-75
2023/10/10 00:47:04;;;;;;;12.65;5.22;;;16.10;99.90;;;;;;5072320;28;20040;-75
2023/10/10 00:49:34;;;;;;;10.93;5.32;;;16.10;99.90;;;;;;5071925;28;20123;-75
2023/10/10 00:52:04;;;;;;;9.45;5.28;;;16.10;99.90;;;;;;5064155;28;20127;-75
2023/10/10 00:54:32;;;;;;;10.55;5.22;;;16.10;99.90;;;;;;5070769;28;20041;-75
2023/10/10 00:56:59;;;;;;;12.00;4.93;;;16.10;99.90;;;;;;5070161;28;20047;-75
2023/10/10 00:59:34;;;;;;;10.13;5.45;;;16.10;99.90;;;;;;5070240;28;20043;-75
2023/10/10 01:02:04;;;;;;;9.57;5.47;;;16.50;99.90;;;;;;5070576;28;20036;-75
2023/10/10 01:04:48;;;;;;;10.73;5.35;;;16.10;99.90;;;;;;5053586;28;20054;-75
2023/10/10 01:07:18;;;;;;;9.38;5.43;;;16.10;99.90;;;;;;5068870;28;20551;-75
2023/10/10 01:12:20;;;;;;;14.80;5.63;;;16.10;99.90;;;;;;5070079;28;20481;-76
2023/10/10 01:14:46;;;;;;;10.32;5.82;;;16.60;99.90;;;;;;5053233;28;20070;-75
2023/10/10 01:17:14;;;;;;;12.43;5.85;;;16.10;99.90;;;;;;5071015;28;20094;-75
2023/10/10 01:19:44;;;;;;;10.25;5.30;;;15.70;99.90;;;;;;5069984;28;20032;-75
2023/10/10 01:22:22;;;;;;;10.10;5.18;;;16.00;99.90;;;;;;5097762;28;20097;-75
2023/10/10 01:24:53;;;;;;;8.35;5.28;;;16.10;99.90;;;;;;5045993;28;20040;-75
2023/10/10 01:27:22;;;;;;;10.63;5.80;;;16.10;99.90;;;;;;5070047;28;20488;-75
2023/10/10 01:29:50;;;;;;;10.52;5.40;;;16.00;99.90;;;;;;5053011;28;20041;-76
2023/10/10 01:32:17;;;;;;;12.50;5.97;;;16.50;99.90;;;;;;5053250;28;20037;-75
2023/10/10 01:34:44;;;;;;;8.45;5.43;;;16.40;99.90;;;;;;5065531;28;20039;-76
2023/10/10 01:37:27;;;;;;;13.27;5.50;;;16.00;99.90;;;;;;5048992;28;20087;-75
2023/10/10 01:39:54;;;;;;;12.45;5.32;;;16.00;99.90;;;;;;5066006;28;20511;-75
2023/10/10 01:42:31;;;;;;;10.05;5.20;;;16.10;99.90;;;;;;5080466;28;20401;-75
2023/10/10 01:44:59;;;;;;;10.27;5.05;;;16.40;99.90;;;;;;5081743;28;20044;-75
2023/10/10 01:47:27;;;;;;;9.65;5.32;;;16.00;99.90;;;;;;5070236;28;20123;-75
2023/10/10 01:49:55;;;;;;;11.68;5.00;;;16.00;99.90;;;;;;5070679;28;20047;-75
2023/10/10 01:52:21;;;;;;;8.45;4.78;;;16.00;99.90;;;;;;5052656;28;20090;-75
2023/10/10 01:54:52;;;;;;;8.32;4.78;;;15.90;99.90;;;;;;5070144;28;20056;-75
2023/10/10 01:57:23;;;;;;;9.32;4.70;;;15.90;99.90;;;;;;5069722;28;20115;-75
2023/10/10 01:59:51;;;;;;;8.45;4.97;;;15.90;99.90;;;;;;5074859;28;20036;-75
2023/10/10 02:02:21;;;;;;;10.32;5.35;;;16.20;99.90;;;;;;5063428;28;20055;-75
2023/10/10 02:04:47;;;;;;;9.13;5.47;;;15.90;99.90;;;;;;5068341;28;20082;-75
2023/10/10 02:07:23;;;;;;;9.95;5.00;;;15.90;99.90;;;;;;5052509;28;20123;-75
2023/10/10 02:10:11;;;;;;;9.63;4.80;;;15.80;99.90;;;;;;5052963;28;20068;-75
2023/10/10 02:12:38;;;;;;;8.13;4.65;;;16.00;99.90;;;;;;5067997;28;20037;-75
2023/10/10 02:15:11;;;;;;;9.30;4.55;;;16.60;99.90;;;;;;5070540;28;20044;-75
2023/10/10 02:17:39;;;;;;;10.88;5.68;;;15.80;99.90;;;;;;5052747;28;20060;-75
2023/10/10 02:20:33;;;;;;;9.27;4.90;;;16.10;99.90;;;;;;5069770;28;20040;-75
2023/10/10 02:23:09;;;;;;;9.60;4.85;;;15.70;99.90;;;;;;5046571;28;20032;-75
2023/10/10 02:28:10;;;;;;;11.10;5.50;;;15.70;99.90;;;;;;5069537;28;20045;-75
2023/10/10 02:30:37;;;;;;;10.20;5.75;;;15.70;99.90;;;;;;5070413;28;20047;-75
2023/10/10 02:38:39;;;;;;;11.48;6.78;;;15.70;99.90;;;;;;5069870;28;20055;-75
2023/10/10 02:41:26;;;;;;;15.15;6.90;;;15.70;99.90;;;;;;5063430;28;20127;-75
2023/10/10 02:43:56;;;;;;;11.43;6.85;;;16.10;99.90;;;;;;5048287;28;20055;-75
2023/10/10 02:46:36;;;;;;;15.02;7.43;;;15.70;99.90;;;;;;5070014;28;20037;-75
2023/10/10 02:49:12;;;;;;;14.68;8.68;;;15.70;99.90;;;;;;5070219;28;20098;-75
2023/10/10 02:51:43;;;;;;;13.82;7.80;;;16.00;99.90;;;;;;5067949;28;20051;-75
2023/10/10 02:54:31;;;;;;;16.85;8.02;;;15.60;99.90;;;;;;5070336;28;20036;-75
2023/10/10 02:56:58;;;;;;;16.75;9.05;;;15.60;99.90;;;;;;5063796;28;20071;-75
2023/10/10 02:59:43;;;;;;;15.05;8.02;;;15.70;99.90;;;;;;5052512;28;20393;-75
2023/10/10 03:02:10;;;;;;;14.18;8.18;;;15.60;99.90;;;;;;5065870;28;20044;-75
2023/10/10 03:07:29;;;;;;;13.13;8.40;;;15.70;99.90;;;;;;5068918;28;20509;-75
2023/10/10 03:12:49;;;;;;;16.40;8.57;;;15.60;99.90;;;;;;5071881;28;20123;-75
2023/10/10 03:18:28;;;;;;;15.63;8.15;;;15.60;99.90;;;;;;5072009;28;20189;-75
2023/10/10 03:23:19;;;;;;;15.15;8.60;;;15.70;99.90;;;;;;5072100;28;20048;-75
2023/10/10 03:28:18;;;;;;;16.33;8.95;;;15.70;99.90;;;;;;5073616;28;20040;-75
2023/10/10 03:30:50;;;;;;;;;;;15.60;99.90;;;;;;5073796;28;20208;-75
2023/10/10 03:33:29;;;;;;;14.15;9.30;;;15.60;99.90;;;;;;5055799;28;19916;-75
2023/10/10 03:36:00;;;;;;;16.67;9.13;;;15.80;99.90;;;;;;5072979;28;20529;-75
2023/10/10 03:38:42;;;;;;;15.43;9.43;;;15.60;99.90;;;;;;5072254;28;20041;-75
2023/10/10 05:25:13;;;;;;;23.38;14.77;;;15.40;99.90;;;;;;5071079;28;20459;-75
2023/10/10 05:27:42;;;;;;;21.80;13.95;;;15.40;99.90;;;;;;5069209;28;20098;-75
2023/10/10 05:30:23;;;;;;;22.63;14.38;;;15.40;99.90;;;;;;5071498;28;20043;-75
2023/10/10 05:33:02;;;;;;;26.42;14.75;;;15.30;99.90;;;;;;5063918;28;20052;-75
2023/10/10 05:35:39;;;;;;;23.65;14.02;;;15.30;99.90;;;;;;5070565;28;20438;-75
2023/10/10 05:38:07;;;;;;;21.90;14.00;;;15.30;99.90;;;;;;5053648;28;20043;-75
2023/10/10 05:40:33;;;;;;;21.38;15.13;;;15.30;99.90;;;;;;5065220;28;20071;-75
2023/10/10 05:42:59;;;;;;;22.20;14.77;;;15.30;99.90;;;;;;5068277;28;20374;-75
2023/10/10 05:45:25;;;;;;;22.88;14.88;;;15.30;99.90;;;;;;5052288;28;20166;-75
2023/10/10 05:47:51;;;;;;;24.30;14.93;;;15.30;99.90;;;;;;5065782;28;20124;-75
2023/10/10 05:50:18;;;;;;;24.42;15.20;;;15.40;99.90;;;;;;5069574;28;20040;-75
2023/10/10 05:52:44;;;;;;;22.55;14.95;;;15.30;99.90;;;;;;5069612;28;20066;-75
2023/10/10 05:55:13;;;;;;;27.23;16.58;;;15.40;99.90;;;;;;5052918;28;20039;-75
2023/10/10 05:57:39;;;;;;;33.80;18.58;;;15.40;99.90;;;;;;5065645;28;20044;-75
2023/10/10 06:00:10;;;;;;;25.55;17.35;;;15.40;99.90;;;;;;5066067;28;20123;-74
2023/10/10 06:02:46;;;;;;;27.83;17.45;;;15.40;99.90;;;;;;5066486;28;20597;-74
2023/10/10 06:05:16;;;;;;;26.05;17.83;;;15.40;99.90;;;;;;5053114;28;20127;-74
2023/10/10 06:07:44;;;;;;;26.85;17.48;;;15.40;99.90;;;;;;5067384;28;20039;-74
2023/10/10 06:10:16;;;;;;;27.05;17.30;;;15.50;99.90;;;;;;5065557;28;20041;-74
2023/10/10 06:12:48;;;;;;;27.65;17.42;;;15.30;99.90;;;;;;5068078;28;20048;-74
2023/10/10 06:15:19;;;;;;;26.33;17.38;;;15.30;99.90;;;;;;5062858;28;20036;-74
2023/10/10 06:17:48;;;;;;;26.13;17.80;;;15.30;99.90;;;;;;5069103;28;20509;-74
2023/10/10 06:20:16;;;;;;;28.67;18.95;;;15.30;99.90;;;;;;5054776;28;20048;-74
2023/10/10 06:22:47;;;;;;;27.38;18.15;;;15.30;99.90;;;;;;5069935;28;20509;-74
2023/10/10 06:25:19;;;;;;;28.90;18.30;;;15.30;99.90;;;;;;5070524;28;20056;-74
2023/10/10 06:27:45;;;;;;;27.85;18.55;;;15.30;99.90;;;;;;5062721;28;20136;-75
2023/10/10 06:30:17;;;;;;;31.10;17.98;;;15.30;99.90;;;;;;5069545;28;20127;-75
2023/10/10 06:32:46;;;;;;;25.38;18.35;;;15.30;99.90;;;;;;5052536;28;20094;-75
2023/10/10 06:37:43;;;;;;;27.17;17.23;;;15.30;99.90;;;;;;5065789;28;20358;-75
2023/10/10 06:40:09;;;;;;;28.73;18.75;;;15.30;99.90;;;;;;5066962;28;20051;-75
2023/10/10 06:42:39;;;;;;;28.83;17.92;;;15.30;99.90;;;;;;5074818;28;20075;-75
2023/10/10 06:45:10;;;;;;;30.05;18.27;;;15.30;99.90;;;;;;5073892;28;20041;-75
2023/10/10 06:47:39;;;;;;;28.08;18.30;;;15.40;99.90;;;;;;5074757;28;20036;-75
2023/10/10 06:50:11;;;;;;;29.88;19.15;;;15.40;99.90;;;;;;5053202;28;20036;-75
2023/10/10 06:52:37;;;;;;;;;;;15.40;99.90;;;;;;5074413;28;20074;-75
2023/10/10 06:55:10;;;;;;;31.77;19.65;;;15.40;99.90;;;;;;5075078;28;19924;-75
2023/10/10 06:57:38;;;;;;;36.17;21.60;;;15.40;99.90;;;;;;5075807;28;20047;-75
2023/10/10 07:00:27;;;;;;;37.47;22.17;;;15.50;99.90;;;;;;5065613;28;20048;-75
2023/10/10 07:02:54;;;;;;;39.03;23.00;;;15.50;99.90;;;;;;5073880;28;20389;-74
2023/10/10 07:05:26;;;;;;;41.90;24.02;;;15.50;99.90;;;;;;5074184;28;20589;-75
2023/10/10 07:07:57;;;;;;;44.90;25.98;;;15.60;99.90;;;;;;5068310;28;20044;-74
2023/10/10 07:10:32;;;;;;;46.30;27.10;;;15.60;99.90;;;;;;5073778;28;20037;-74
2023/10/10 07:13:10;;;;;;;46.97;26.83;;;15.60;99.90;;;;;;5068128;28;20124;-75
2023/10/10 07:15:39;;;;;;;55.17;29.48;;;15.70;99.90;;;;;;5069569;28;20465;-73
2023/10/10 07:18:09;;;;;;;56.28;30.15;;;15.90;99.90;;;;;;5068239;28;20047;-75
2023/10/10 07:23:20;;;;;;;64.07;32.28;;;15.80;99.90;;;;;;5069896;28;20559;-75
2023/10/10 07:25:58;;;;;;;66.38;33.50;;;15.80;99.90;;;;;;5072887;28;20243;-75
2023/10/10 07:28:26;;;;;;;71.50;35.13;;;15.80;99.90;;;;;;5075404;28;20041;-75
2023/10/10 07:30:52;;;;;;;76.68;35.35;;;15.80;99.90;;;;;;5073391;28;20042;-75
2023/10/10 07:33:22;;;;;;;74.13;34.78;;;15.90;99.90;;;;;;5057210;28;20075;-75
2023/10/10 07:35:56;;;;;;;;;;;15.90;99.90;;;;;;5074711;28;20097;-75
2023/10/10 07:38:30;;;;;;;73.97;35.75;;;16.00;99.90;;;;;;5056582;28;19960;-75
2023/10/10 07:41:21;;;;;;;74.45;36.30;;;15.90;99.90;;;;;;5073675;28;20058;-75
2023/10/10 07:43:52;;;;;;;79.72;38.70;;;15.80;99.90;;;;;;5049757;28;20061;-75
2023/10/10 07:46:22;;;;;;;72.85;36.75;;;15.80;99.90;;;;;;5070033;28;20051;-75
2023/10/10 07:48:53;;;;;;;82.38;38.38;;;15.80;99.90;;;;;;5066127;28;20459;-75
2023/10/10 07:51:27;;;;;;;77.82;39.10;;;15.80;99.90;;;;;;5053709;28;20052;-75
2023/10/10 07:54:10;;;;;;;82.70;39.58;;;15.90;99.90;;;;;;5066508;28;20040;-75
2023/10/10 07:56:44;;;;;;;84.05;42.22;;;15.90;99.90;;;;;;5072987;28;20115;-75
2023/10/10 07:59:13;;;;;;;81.53;41.05;;;15.90;99.90;;;;;;5073001;28;20052;-75
2023/10/10 08:01:41;;;;;;;82.88;40.95;;;15.90;99.90;;;;;;5066075;28;20450;-75
2023/10/10 08:04:12;;;;;;;87.20;42.13;;;16.00;99.90;;;;;;5055225;28;20141;-75
2023/10/10 08:06:44;;;;;;;84.93;41.60;;;16.00;99.90;;;;;;5072653;28;20297;-75
2023/10/10 08:11:55;;;;;;;85.38;42.92;;;16.10;99.90;;;;;;5061706;28;20067;-75
2023/10/10 08:14:24;;;;;;;77.70;40.90;;;16.10;99.90;;;;;;5065979;28;20094;-75
2023/10/10 08:16:59;;;;;;;70.47;39.90;;;16.20;99.90;;;;;;5068726;28;20116;-75
2023/10/10 08:19:33;;;;;;;77.65;40.90;;;16.20;99.90;;;;;;5071612;28;20039;-75
2023/10/10 08:21:58;;;;;;;71.18;40.25;;;15.80;99.90;;;;;;5071454;28;20044;-75
2023/10/10 08:24:24;;;;;;;75.32;40.65;;;16.30;99.90;;;;;;5065210;28;20037;-75
2023/10/10 08:26:53;;;;;;;71.03;40.00;;;16.40;99.90;;;;;;5065907;28;20044;-75
2023/10/10 08:29:23;;;;;;;75.80;40.00;;;16.40;99.90;;;;;;5066017;28;20127;-74
2023/10/10 08:31:51;;;;;;;69.63;38.55;;;16.50;99.90;;;;;;5055930;28;20032;-75
2023/10/10 08:34:17;;;;;;;64.97;37.63;;;16.50;99.90;;;;;;5066291;28;20040;-75
2023/10/10 08:36:45;;;;;;;62.22;36.72;;;16.60;99.90;;;;;;5070531;28;20055;-75
2023/10/10 08:39:25;;;;;;;66.25;36.65;;;16.60;99.90;;;;;;5069866;28;20108;-74
2023/10/10 08:41:56;;;;;;;62.85;37.15;;;16.60;99.90;;;;;;5063781;28;20110;-74
2023/10/10 08:44:23;;;;;;;61.50;36.63;;;16.70;99.90;;;;;;5065192;28;20073;-74
2023/10/10 08:49:38;;;;;;;58.15;35.55;;;16.90;99.90;;;;;;5069547;28;20049;-75
2023/10/10 08:52:04;;;;;;;61.10;36.83;;;16.90;99.90;;;;;;5067317;28;20550;-75
2023/10/10 08:54:32;;;;;;;60.95;36.65;;;17.20;99.90;;;;;;5052841;28;20506;-75
2023/10/10 08:57:26;;;;;;;59.25;36.38;;;17.10;99.90;;;;;;5070509;28;20040;-75
2023/10/10 08:59:52;;;;;;;58.42;34.75;;;17.10;99.90;;;;;;5094471;28;20520;-75
2023/10/10 09:02:20;;;;;;;59.15;35.10;;;17.20;99.90;;;;;;5049139;28;20044;-77
2023/10/10 09:04:54;;;;;;;56.72;34.92;;;17.20;99.90;;;;;;5053066;28;20040;-76
2023/10/10 09:07:20;;;;;;;56.40;34.97;;;17.30;99.90;;;;;;5068773;28;20539;-76
2023/10/10 09:09:54;;;;;;;56.15;35.47;;;17.20;99.90;;;;;;5068155;28;20119;-75
2023/10/10 09:12:20;;;;;;;59.20;34.30;;;17.30;99.90;;;;;;5068482;28;20102;-76
2023/10/10 09:14:50;;;;;;;55.67;34.88;;;17.30;99.90;;;;;;5071192;28;20044;-76
2023/10/10 09:17:35;;;;;;;59.90;35.10;;;17.40;99.90;;;;;;5061125;28;20099;-75
2023/10/10 09:22:51;;;;;;;54.67;34.63;;;17.50;99.90;;;;;;5069880;28;20060;-76
2023/10/10 09:25:26;;;;;;;57.67;35.55;;;17.50;99.90;;;;;;5063068;28;20504;-76
2023/10/10 09:28:04;;;;;;;60.25;34.63;;;17.60;99.90;;;;;;5063876;28;20072;-75
2023/10/10 09:30:34;;;;;;;57.63;34.35;;;17.60;99.90;;;;;;5068026;28;20040;-75
2023/10/10 09:33:13;;;;;;;55.88;34.45;;;17.70;99.90;;;;;;5069737;28;20037;-75
2023/10/10 09:35:48;;;;;;;54.47;32.63;;;17.70;99.90;;;;;;5065882;28;20040;-76
2023/10/10 09:38:21;;;;;;;53.45;33.88;;;17.70;99.90;;;;;;5068204;28;20045;-76
2023/10/10 09:40:48;;;;;;;54.70;33.10;;;17.80;99.90;;;;;;5070300;28;20048;-76
2023/10/10 09:43:25;;;;;;;53.10;33.85;;;17.80;99.90;;;;;;5068173;28;20047;-76
2023/10/10 09:46:10;;;;;;;54.75;33.00;;;18.00;99.90;;;;;;5058572;28;20025;-76
2023/10/10 09:51:30;;;;;;;51.67;31.90;;;18.00;99.90;;;;;;5062009;28;20056;-76
2023/10/10 09:54:18;;;;;;;49.50;31.38;;;18.00;99.90;;;;;;5064242;28;20150;-76
2023/10/10 09:56:47;;;;;;;46.17;29.63;;;18.00;99.90;;;;;;5054643;28;20040;-76
2023/10/10 09:59:15;;;;;;;49.03;31.67;;;18.10;99.90;;;;;;5063339;28;20071;-76
2023/10/10 10:01:45;;;;;;;49.88;30.50;;;18.10;99.90;;;;;;5068072;28;20106;-76
2023/10/10 10:04:18;;;;;;;48.85;30.52;;;18.20;99.90;;;;;;5064346;28;20408;-76
2023/10/10 10:07:12;;;;;;;48.83;30.20;;;18.30;99.90;;;;;;5052673;28;20512;-75
2023/10/10 10:09:38;;;;;;;45.83;31.02;;;18.40;99.90;;;;;;5069308;28;20094;-76
2023/10/10 10:12:09;;;;;;;45.53;30.25;;;18.50;99.90;;;;;;5070408;28;20040;-76
2023/10/10 10:14:46;;;;;;;45.35;28.85;;;18.50;99.90;;;;;;5070379;28;20047;-75
2023/10/10 10:17:23;;;;;;;43.58;29.13;;;18.60;99.90;;;;;;5072918;28;20119;-75
2023/10/10 10:19:49;;;;;;;48.05;28.00;;;18.70;99.90;;;;;;5051552;28;20052;-76
2023/10/10 10:22:17;;;;;;;43.80;28.30;;;18.70;99.90;;;;;;5071486;28;20032;-75
2023/10/10 10:25:20;;;;;;;45.33;29.02;;;18.70;99.90;;;;;;5069553;28;20496;-76
2023/10/10 10:28:00;;;;;;;46.58;29.40;;;18.90;99.90;;;;;;5064718;28;20119;-79
2023/10/10 10:32:55;;;;;;;46.33;27.23;;;19.30;99.90;;;;;;5073927;28;20515;-76
2023/10/10 10:35:22;;;;;;;44.38;27.63;;;19.40;99.90;;;;;;5070091;28;20055;-77
2023/10/10 10:38:00;;;;;;;42.53;27.48;;;19.80;99.90;;;;;;5044403;28;20454;-77
2023/10/10 10:43:16;;;;;;;38.97;26.35;;;19.90;99.90;;;;;;5062419;28;20131;-77
2023/10/10 10:46:07;;;;;;;41.72;26.50;;;19.80;99.90;;;;;;5066118;28;20433;-76
2023/10/10 10:48:35;;;;;;;37.92;25.60;;;20.20;99.90;;;;;;5064505;28;20037;-76
2023/10/10 10:51:28;;;;;;;41.28;24.70;;;20.00;99.90;;;;;;5066169;28;20048;-77
2023/10/10 10:53:58;;;;;;;40.00;24.75;;;20.20;99.90;;;;;;5040897;28;20080;-76
2023/10/10 10:59:12;;;;;;;35.35;23.15;;;20.10;99.90;;;;;;5067547;28;20037;-76
2023/10/10 11:01:42;;;;;;;35.15;24.15;;;20.30;99.90;;;;;;5064237;28;20041;-76
2023/10/10 11:04:15;;;;;;;36.03;22.77;;;20.40;99.90;;;;;;5069140;28;20037;-75
2023/10/10 11:07:03;;;;;;;38.08;22.75;;;20.50;99.90;;;;;;5066266;28;20045;-76
2023/10/10 11:09:34;;;;;;;34.90;22.40;;;20.90;99.90;;;;;;5051576;28;20123;-76
2023/10/10 11:12:02;;;;;;;33.42;22.77;;;20.70;99.90;;;;;;5051038;28;20064;-76
2023/10/10 11:14:44;;;;;;;38.15;22.40;;;21.10;99.90;;;;;;5047337;28;20142;-76
2023/10/10 11:17:18;;;;;;;;;;;20.80;99.90;;;;;;5050555;28;20036;-76
2023/10/10 11:20:25;;;;;;;30.60;21.23;;;20.90;99.90;;;;;;5064835;28;19943;-76
2023/10/10 11:22:39;;;;;;;33.65;21.52;;;21.00;99.90;;;;;;5061579;28;20097;-76
2023/10/10 11:25:11;;;;;;;32.58;21.15;;;21.30;99.90;;;;;;5062563;28;20421;-76
2023/10/10 11:27:44;;;;;;;32.47;21.15;;;21.10;99.90;;;;;;5068707;28;20048;-76
2023/10/10 11:30:24;;;;;;;33.70;21.75;;;21.20;99.90;;;;;;5067226;28;20048;-76
2023/10/10 11:33:00;;;;;;;33.22;20.83;;;21.20;99.90;;;;;;5067871;28;20505;-76
2023/10/10 11:35:26;;;;;;;32.83;20.85;;;21.30;99.90;;;;;;5066948;28;20049;-76
2023/10/10 11:38:15;;;;;;;32.13;21.13;;;21.30;99.90;;;;;;5067008;28;20040;-76
2023/10/10 11:40:43;;;;;;;29.83;21.45;;;21.40;99.90;;;;;;5065402;28;20103;-76
2023/10/10 11:43:11;;;;;;;32.88;20.38;;;21.40;99.90;;;;;;5065966;28;20465;-76
2023/10/10 11:45:40;;;;;;;27.83;19.50;;;21.50;99.90;;;;;;5066972;28;20086;-76
2023/10/10 11:48:14;;;;;;;28.52;19.70;;;21.50;99.90;;;;;;5060025;28;20040;-76
2023/10/10 11:50:51;;;;;;;30.50;19.75;;;21.50;99.90;;;;;;5067837;28;20052;-76
2023/10/10 11:53:24;;;;;;;30.15;20.20;;;21.40;99.90;;;;;;5058658;28;20052;-76
2023/10/10 11:55:54;;;;;;;30.05;21.00;;;21.40;99.90;;;;;;5050798;28;20127;-76
2023/10/10 11:58:36;;;;;;;30.75;20.50;;;21.30;99.90;;;;;;5044170;28;20041;-76
2023/10/10 12:01:07;;;;;;;28.95;18.55;;;21.20;99.90;;;;;;5067705;28;20041;-76
2023/10/10 12:03:42;;;;;;;32.05;19.70;;;21.20;99.90;;;;;;5069023;28;20503;-76
2023/10/10 12:06:26;;;;;;;31.30;19.95;;;21.20;99.90;;;;;;5069390;28;20044;-76
2023/10/10 12:08:53;;;;;;;32.25;20.30;;;21.10;99.90;;;;;;5061139;28;20058;-76
2023/10/10 12:11:25;;;;;;;30.52;19.42;;;21.00;99.90;;;;;;5062485;28;20041;-76
2023/10/10 12:13:52;;;;;;;30.35;19.15;;;21.00;99.90;;;;;;5052608;28;20572;-76
2023/10/10 12:16:23;;;;;;;26.55;19.00;;;21.00;99.90;;;;;;5048592;28;20047;-76
2023/10/10 12:18:52;;;;;;;31.13;18.88;;;21.00;99.90;;;;;;5051518;28;20128;-77
2023/10/10 12:21:20;;;;;;;23.27;15.65;;;21.00;99.90;;;;;;5048485;28;20068;-76
2023/10/10 12:23:50;;;;;;;22.08;14.68;;;21.10;99.90;;;;;;5062644;28;20040;-76
2023/10/10 12:26:22;;;;;;;22.63;13.27;;;21.50;99.90;;;;;;5055547;28;20044;-77
2023/10/10 12:28:48;;;;;;;21.50;13.50;;;21.50;99.90;;;;;;5054940;28;20072;-76
2023/10/10 12:31:17;;;;;;;21.10;13.82;;;21.60;99.90;;;;;;5070497;28;20028;-76
2023/10/10 12:33:47;;;;;;;24.38;13.65;;;21.80;99.90;;;;;;5063331;28;20036;-76
2023/10/10 12:36:14;;;;;;;17.40;12.13;;;21.80;99.90;;;;;;5065442;28;20500;-76
2023/10/10 12:38:40;;;;;;;17.38;12.18;;;21.80;99.90;;;;;;5070641;28;20044;-76
2023/10/10 12:41:06;;;;;;;19.73;12.35;;;21.80;99.90;;;;;;5072376;28;20064;-76
2023/10/10 12:43:32;;;;;;;20.50;13.35;;;21.90;99.90;;;;;;5070896;28;20174;-76
2023/10/10 12:46:00;;;;;;;19.70;12.57;;;21.80;99.90;;;;;;5070522;28;20036;-76
2023/10/10 12:48:28;;;;;;;19.90;12.40;;;21.60;99.90;;;;;;5053753;28;20044;-77
2023/10/10 12:51:01;;;;;;;22.73;13.68;;;21.50;99.90;;;;;;5069625;28;20043;-77
2023/10/10 12:53:31;;;;;;;19.30;13.45;;;21.40;99.90;;;;;;5069959;28;20110;-76
2023/10/10 12:56:02;;;;;;;18.77;12.55;;;21.30;99.90;;;;;;5070933;28;20045;-76
2023/10/10 12:58:30;;;;;;;20.00;13.55;;;21.20;99.90;;;;;;5069047;28;20083;-76
2023/10/10 13:00:57;;;;;;;21.63;13.07;;;21.20;99.90;;;;;;5072295;28;20068;-76
2023/10/10 13:03:27;;;;;;;22.00;13.80;;;21.20;99.90;;;;;;5071507;28;20052;-76
2023/10/10 13:05:59;;;;;;;24.50;13.73;;;21.30;99.90;;;;;;5070492;28;20037;-76
2023/10/10 13:08:25;;;;;;;;;;;21.10;99.90;;;;;;5072147;28;20037;-76
2023/10/10 13:10:54;;;;;;;22.52;14.45;;;21.00;99.90;;;;;;5071952;28;19970;-76
2023/10/10 13:13:27;;;;;;;21.65;14.00;;;21.00;99.90;;;;;;5054451;28;20040;-76
2023/10/10 13:18:58;;;;;;;18.83;13.52;;;20.90;99.90;;;;;;5052044;28;20040;-77
2023/10/10 13:21:24;;;;;;;24.70;14.80;;;20.90;99.90;;;;;;5065674;28;20040;-76
2023/10/10 13:23:50;;;;;;;20.35;14.25;;;20.90;99.90;;;;;;5070209;28;20040;-77
2023/10/10 13:26:17;;;;;;;23.40;14.82;;;21.00;99.90;;;;;;5071832;28;20036;-76
2023/10/10 13:28:46;;;;;;;23.70;15.07;;;20.80;99.90;;;;;;5071347;28;20106;-76
2023/10/10 13:31:16;;;;;;;19.88;13.65;;;20.90;99.90;;;;;;5068754;28;20036;-76
2023/10/10 13:33:43;;;;;;;21.30;14.52;;;20.70;99.90;;;;;;5065060;28;20517;-77
2023/10/10 13:36:14;;;;;;;21.92;14.55;;;20.60;99.90;;;;;;5052270;28;20043;-77
2023/10/10 13:38:50;;;;;;;;;;;20.90;99.90;;;;;;5069974;28;20038;-76
2023/10/10 13:41:16;;;;;;;21.23;14.25;;;20.60;99.90;;;;;;5053594;28;19917;-77
2023/10/10 13:43:47;;;;;;;18.67;13.50;;;20.60;99.90;;;;;;5067992;28;20105;-76
2023/10/10 13:46:13;;;;;;;23.40;13.05;;;20.70;99.90;;;;;;5049735;28;20044;-76
2023/10/10 13:48:40;;;;;;;23.45;14.65;;;20.50;99.90;;;;;;5066152;28;20045;-76
2023/10/10 13:51:09;;;;;;;25.35;14.73;;;20.50;99.90;;;;;;5067191;28;20036;-76
2023/10/10 13:53:39;;;;;;;21.50;14.00;;;20.50;99.90;;;;;;5069927;28;20048;-78
2023/10/10 13:56:04;;;;;;;21.58;13.23;;;20.50;99.90;;;;;;5051652;28;20090;-76
2023/10/10 13:58:30;;;;;;;21.17;13.30;;;20.50;99.90;;;;;;5070168;28;20044;-76
2023/10/10 14:01:29;;;;;;;22.85;13.38;;;20.50;99.90;;;;;;5069634;28;20036;-76
2023/10/10 14:04:13;;;;;;;25.20;12.98;;;20.50;99.90;;;;;;5042634;28;20052;-77
2023/10/10 14:06:45;;;;;;;20.52;12.32;;;20.40;99.90;;;;;;5050543;28;20040;-76
2023/10/10 14:09:11;;;;;;;22.65;12.68;;;20.40;99.90;;;;;;5065297;28;20037;-76
2023/10/10 14:11:38;;;;;;;21.17;12.00;;;20.40;99.90;;;;;;5069598;28;20036;-76
2023/10/10 14:14:10;;;;;;;23.83;12.70;;;20.40;99.90;;;;;;5062669;28;20045;-76
2023/10/10 14:16:35;;;;;;;19.08;12.90;;;20.40;99.90;;;;;;5070104;28;20481;-76
2023/10/10 14:19:01;;;;;;;29.30;12.02;;;20.40;99.90;;;;;;5070956;28;20082;-76
2023/10/10 14:21:27;;;;;;;20.48;12.07;;;20.40;99.90;;;;;;5068809;28;20527;-76
2023/10/10 14:23:59;;;;;;;19.08;12.38;;;20.50;99.90;;;;;;5052255;28;20049;-76
2023/10/10 14:26:30;;;;;;;18.27;11.32;;;20.60;99.90;;;;;;5069132;28;20067;-76
2023/10/10 14:28:57;;;;;;;19.50;13.30;;;20.40;99.90;;;;;;5066409;28;20112;-76
2023/10/10 14:31:31;;;;;;;18.08;12.93;;;20.90;99.90;;;;;;5071197;28;20037;-76
2023/10/10 14:34:01;;;;;;;23.35;14.00;;;20.50;99.90;;;;;;5049484;28;20033;-76
2023/10/10 14:36:27;;;;;;;20.50;13.05;;;20.60;99.90;;;;;;5064422;28;20068;-76
2023/10/10 14:38:53;;;;;;;18.17;11.93;;;20.50;99.90;;;;;;5067226;28;20107;-76
2023/10/10 14:41:20;;;;;;;18.90;12.30;;;20.50;99.90;;;;;;5050886;28;20658;-76
2023/10/10 14:43:54;;;;;;;21.73;13.30;;;20.40;99.90;;;;;;5069167;28;20055;-76
2023/10/10 14:46:27;;;;;;;18.17;11.75;;;20.40;99.90;;;;;;5052488;28;20086;-76
2023/10/10 14:49:05;;;;;;;19.48;11.75;;;20.40;99.90;;;;;;5068472;28;20044;-76
2023/10/10 14:51:36;;;;;;;19.95;12.07;;;20.40;99.90;;;;;;5070518;28;20513;-76
2023/10/10 14:54:08;;;;;;;17.02;11.30;;;20.30;99.90;;;;;;5066820;28;20501;-76
2023/10/10 14:56:35;;;;;;;;;;;20.30;99.90;;;;;;5042035;28;20042;-76
2023/10/10 14:59:06;;;;;;;22.92;11.48;;;20.20;99.90;;;;;;5068717;28;19917;-77
2023/10/10 15:01:34;;;;;;;16.63;12.23;;;20.30;99.90;;;;;;5072490;28;20067;-77
2023/10/10 15:04:08;;;;;;;18.92;12.07;;;20.20;99.90;;;;;;5071256;28;20041;-77
2023/10/10 15:06:34;;;;;;;20.40;13.38;;;20.20;99.90;;;;;;5069042;28;20040;-76
2023/10/10 15:09:01;;;;;;;19.40;12.82;;;20.10;99.90;;;;;;5073682;28;20032;-76
2023/10/10 15:11:28;;;;;;;22.05;11.88;;;20.10;99.90;;;;;;5074327;28;20055;-78
2023/10/10 15:13:58;;;;;;;19.63;12.93;;;20.10;99.90;;;;;;5053960;28;20044;-76
2023/10/10 15:16:27;;;;;;;22.83;13.10;;;20.20;99.90;;;;;;5055997;28;20032;-76
2023/10/10 15:18:53;;;;;;;18.83;12.20;;;20.00;99.90;;;;;;5072430;28;20041;-76
2023/10/10 15:21:27;;;;;;;22.08;13.32;;;20.00;99.90;;;;;;5052840;28;20048;-76
2023/10/10 15:23:53;;;;;;;21.60;13.40;;;19.90;99.90;;;;;;5068481;28;20036;-76
2023/10/10 15:26:19;;;;;;;21.40;13.50;;;19.90;99.90;;;;;;5072575;28;20083;-76
2023/10/10 15:28:54;;;;;;;17.33;12.05;;;19.90;99.90;;;;;;5073479;28;20501;-76
2023/10/10 15:31:24;;;;;;;21.92;12.32;;;19.90;99.90;;;;;;5070640;28;20439;-76